createdAt,value
2024-04-06T00:01:07.836Z,10.45
2024-04-06T00:03:35.418Z,10.24
2024-04-06T00:06:21.186Z,10.67
2024-04-06T00:09:06.666Z,11.11
2024-04-06T00:11:34.124Z,11.04
2024-04-06T00:14:01.597Z,10.91
2024-04-06T00:16:29.450Z,10.66
2024-04-06T00:19:15.651Z,10.44
2024-04-06T00:21:43.215Z,10.22
2024-04-06T00:24:29.300Z,10.78
2024-04-06T00:26:56.883Z,11.16
2024-04-06T00:29:42.279Z,11.16
2024-04-06T00:32:09.690Z,11.07
2024-04-06T00:34:37.049Z,10.89
2024-04-06T00:37:22.436Z,10.69
2024-04-06T00:39:50.018Z,11.26
2024-04-06T00:42:17.442Z,11.77
2024-04-06T00:44:44.999Z,11.84
2024-04-06T00:47:30.934Z,11.64
2024-04-06T00:49:59.202Z,11.40
2024-04-06T00:52:26.621Z,11.12
2024-04-06T00:54:54.088Z,10.77
2024-04-06T00:57:39.760Z,11.27
2024-04-06T01:00:25.757Z,11.62
2024-04-06T01:03:11.141Z,11.53
2024-04-06T01:05:38.990Z,11.26
2024-04-06T01:08:06.885Z,10.93
2024-04-06T01:10:34.535Z,10.60
2024-04-06T01:13:19.799Z,10.81
2024-04-06T01:15:47.764Z,11.04
2024-04-06T01:18:15.234Z,11.04
2024-04-06T01:20:45.034Z,10.83
2024-04-06T01:23:13.542Z,10.76
2024-04-06T01:25:59.206Z,10.68
2024-04-06T01:28:44.577Z,11.17
2024-04-06T01:31:30.260Z,11.45
2024-04-06T01:34:15.662Z,11.52
2024-04-06T01:36:43.099Z,11.29
2024-04-06T01:39:28.575Z,10.99
2024-04-06T01:41:56.039Z,11.25
2024-04-06T01:44:41.516Z,11.73
2024-04-06T01:47:09.074Z,11.80
2024-04-06T01:49:54.971Z,11.39
2024-04-06T01:52:22.418Z,11.06
2024-04-06T01:54:49.869Z,10.86
2024-04-06T01:57:17.369Z,11.24
2024-04-06T01:59:47.344Z,11.42
2024-04-06T02:02:14.805Z,11.51
2024-04-06T02:04:42.281Z,11.27
2024-04-06T02:07:09.727Z,11.03
2024-04-06T02:09:37.210Z,10.91
2024-04-06T02:14:02.087Z,11.64
2024-04-06T02:16:29.560Z,11.94
2024-04-06T02:18:57.105Z,11.63
2024-04-06T02:21:42.384Z,11.47
2024-04-06T02:24:09.933Z,11.17
2024-04-06T02:26:37.712Z,11.00
2024-04-06T02:29:05.568Z,10.83
2024-04-06T02:31:33.571Z,11.45
2024-04-06T02:34:00.991Z,11.78
2024-04-06T02:36:28.350Z,11.74
2024-04-06T02:39:15.883Z,11.49
2024-04-06T02:41:43.378Z,11.24
2024-04-06T02:44:10.787Z,11.05
2024-04-06T02:46:56.298Z,10.75
2024-04-06T02:49:42.701Z,11.35
2024-04-06T02:52:28.171Z,11.68
2024-04-06T02:54:55.716Z,11.76
2024-04-06T02:57:23.185Z,11.66
2024-04-06T03:00:12.137Z,11.38
2024-04-06T03:02:39.788Z,11.06
2024-04-06T03:05:07.657Z,10.72
2024-04-06T03:07:53.289Z,11.22
2024-04-06T03:10:20.699Z,11.52
2024-04-06T03:13:06.380Z,11.38
2024-04-06T03:15:33.834Z,11.17
2024-04-06T03:18:01.740Z,10.92
2024-04-06T03:20:29.160Z,10.70
2024-04-06T03:23:03.596Z,10.43
2024-04-06T03:25:49.567Z,11.08
2024-04-06T03:28:35.052Z,11.56
2024-04-06T03:31:02.507Z,11.51
2024-04-06T03:33:29.880Z,11.33
2024-04-06T03:35:57.341Z,11.07
2024-04-06T03:38:42.592Z,10.78
2024-04-06T03:41:10.927Z,10.84
2024-04-06T03:43:56.549Z,11.41
2024-04-06T03:46:29.129Z,11.50
2024-04-06T03:48:57.263Z,11.36
2024-04-06T03:51:27.519Z,11.09
2024-04-06T03:54:13.411Z,10.89
2024-04-06T03:56:42.001Z,11.36
2024-04-06T03:59:27.593Z,11.83
2024-04-06T04:01:55.683Z,11.80
2024-04-06T04:04:23.019Z,11.57
2024-04-06T04:06:50.460Z,11.42
2024-04-06T04:09:18.038Z,11.29
2024-04-06T04:12:03.406Z,11.02
2024-04-06T04:14:30.926Z,11.56
2024-04-06T04:16:58.416Z,11.90
2024-04-06T04:19:44.006Z,11.81
2024-04-06T04:22:11.480Z,11.60
2024-04-06T04:24:39.018Z,11.40
2024-04-06T04:27:25.534Z,11.21
2024-04-06T04:29:53.594Z,11.74
2024-04-06T04:32:39.029Z,12.15
2024-04-06T04:35:06.828Z,12.12
2024-04-06T04:37:34.291Z,11.96
2024-04-06T04:40:19.788Z,11.77
2024-04-06T04:42:47.433Z,11.61
2024-04-06T04:45:15.960Z,11.48
2024-04-06T04:47:43.823Z,12.16
2024-04-06T04:50:29.467Z,12.52
2024-04-06T04:53:15.348Z,12.26
2024-04-06T04:56:01.301Z,12.03
2024-04-06T04:58:28.803Z,11.84
2024-04-06T05:00:56.258Z,11.76
2024-04-06T05:03:41.751Z,12.35
2024-04-06T05:06:09.448Z,12.53
2024-04-06T05:08:36.918Z,12.46
2024-04-06T05:11:04.903Z,12.37
2024-04-06T05:13:32.415Z,12.16
2024-04-06T05:16:17.874Z,12.34
2024-04-06T05:19:07.030Z,12.84
2024-04-06T05:21:34.732Z,12.83
2024-04-06T05:24:02.254Z,12.57
2024-04-06T05:26:29.915Z,12.52
2024-04-06T05:28:58.103Z,12.37
2024-04-06T05:31:25.543Z,12.48
2024-04-06T05:34:11.037Z,12.99
2024-04-06T05:36:56.613Z,13.15
2024-04-06T05:39:24.087Z,13.09
2024-04-06T05:41:51.925Z,13.19
2024-04-06T05:44:23.483Z,13.19
2024-04-06T05:47:08.777Z,13.81
2024-04-06T05:49:54.240Z,14.46
2024-04-06T05:52:40.331Z,14.57
2024-04-06T05:55:25.707Z,14.58
2024-04-06T05:57:53.369Z,14.81
2024-04-06T06:00:21.357Z,14.90
2024-04-06T06:02:48.794Z,14.83
2024-04-06T06:05:16.261Z,14.81
2024-04-06T06:07:43.728Z,14.74
2024-04-06T06:10:11.297Z,14.71
2024-04-06T06:12:58.530Z,15.48
2024-04-06T06:15:44.288Z,16.04
2024-04-06T06:18:11.864Z,16.19
2024-04-06T06:20:57.560Z,16.12
2024-04-06T06:23:25.080Z,15.96
2024-04-06T06:25:52.654Z,15.85
2024-04-06T06:28:20.425Z,15.77
2024-04-06T06:31:06.016Z,15.75
2024-04-06T06:33:51.672Z,15.79
2024-04-06T06:41:20.594Z,15.60
2024-04-06T06:44:05.968Z,15.70
2024-04-06T06:46:33.676Z,15.87
2024-04-06T06:49:19.461Z,15.94
2024-04-06T06:51:46.998Z,16.01
2024-04-06T06:54:33.290Z,16.16
2024-04-06T06:57:00.734Z,15.99
2024-04-06T07:00:20.232Z,15.79
2024-04-06T07:02:33.658Z,15.68
2024-04-06T07:05:01.202Z,15.70
2024-04-06T07:07:28.763Z,15.82
2024-04-06T07:09:56.317Z,15.99
2024-04-06T07:12:41.598Z,16.27
2024-04-06T07:15:09.047Z,16.46
2024-04-06T07:17:36.859Z,16.68
2024-04-06T07:20:04.989Z,17.18
2024-04-06T07:22:32.449Z,17.44
2024-04-06T07:25:19.667Z,17.48
2024-04-06T07:28:05.156Z,17.50
2024-04-06T07:30:50.637Z,17.76
2024-04-06T07:33:18.089Z,17.81
2024-04-06T07:36:03.783Z,17.98
2024-04-06T07:38:31.257Z,17.87
2024-04-06T07:41:17.011Z,17.83
2024-04-06T07:44:03.002Z,17.99
2024-04-06T07:46:48.992Z,17.83
2024-04-06T07:49:16.548Z,17.65
2024-04-06T07:51:44.729Z,17.40
2024-04-06T07:54:12.420Z,17.47
2024-04-06T07:56:39.969Z,17.58
2024-04-06T07:59:07.409Z,17.66
2024-04-06T08:01:34.911Z,17.75
2024-04-06T08:04:20.815Z,17.76
2024-04-06T08:07:08.345Z,17.69
2024-04-06T08:09:58.238Z,17.68
2024-04-06T08:12:26.746Z,17.72
2024-04-06T08:14:54.329Z,17.69
2024-04-06T08:17:41.383Z,17.70
2024-04-06T08:20:27.114Z,17.70
2024-04-06T08:22:54.697Z,17.68
2024-04-06T08:25:22.138Z,17.65
2024-04-06T08:27:49.700Z,17.55
2024-04-06T08:30:17.906Z,17.65
2024-04-06T08:32:46.763Z,17.81
2024-04-06T08:35:32.337Z,17.93
2024-04-06T08:37:59.998Z,18.03
2024-04-06T08:40:27.460Z,18.13
2024-04-06T08:42:57.068Z,18.22
2024-04-06T08:45:43.469Z,18.14
2024-04-06T08:48:11.067Z,18.11
2024-04-06T08:50:38.791Z,18.14
2024-04-06T08:53:24.468Z,18.17
2024-04-06T08:55:51.816Z,18.17
2024-04-06T08:58:19.314Z,18.15
2024-04-06T09:00:46.848Z,18.29
2024-04-06T09:03:35.194Z,18.43
2024-04-06T09:06:20.779Z,18.57
2024-04-06T09:09:07.992Z,18.66
2024-04-06T09:11:53.778Z,18.65
2024-04-06T09:14:23.062Z,18.42
2024-04-06T09:17:10.196Z,18.43
2024-04-06T09:19:37.778Z,18.52
2024-04-06T09:22:05.412Z,18.64
2024-04-06T09:24:55.412Z,18.78
2024-04-06T09:27:22.970Z,19.00
2024-04-06T09:29:50.445Z,19.32
2024-04-06T09:32:23.105Z,19.52
2024-04-06T09:34:53.419Z,19.70
2024-04-06T09:37:40.336Z,20.20
2024-04-06T09:40:12.011Z,20.18
2024-04-06T09:42:39.679Z,20.18
2024-04-06T09:45:25.065Z,19.82
2024-04-06T09:47:52.604Z,20.13
2024-04-06T09:50:39.608Z,20.20
2024-04-06T09:53:07.887Z,19.89
2024-04-06T09:55:53.369Z,19.66
2024-04-06T09:58:29.390Z,19.66
2024-04-06T10:01:17.723Z,19.48
2024-04-06T10:03:47.478Z,19.16
2024-04-06T10:06:22.904Z,19.09
2024-04-06T10:08:51.005Z,19.06
2024-04-06T10:11:36.496Z,19.03
2024-04-06T10:14:05.936Z,19.09
2024-04-06T10:16:34.479Z,19.32
2024-04-06T10:19:02.036Z,19.36
2024-04-06T10:21:37.257Z,19.33
2024-04-06T10:24:08.916Z,19.36
2024-04-06T10:26:37.001Z,19.44
2024-04-06T10:29:04.447Z,19.38
2024-04-06T10:31:42.236Z,19.36
2024-04-06T10:34:15.398Z,19.36
2024-04-06T10:36:42.900Z,19.41
2024-04-06T10:39:10.348Z,19.27
2024-04-06T10:41:38.937Z,19.16
2024-04-06T10:44:07.311Z,19.04
2024-04-06T10:46:35.246Z,19.05
2024-04-06T10:49:06.430Z,18.89
2024-04-06T10:51:34.644Z,18.81
2024-04-06T10:54:02.164Z,18.83
2024-04-06T10:56:29.739Z,18.73
2024-04-06T10:58:57.286Z,18.72
2024-04-06T11:01:25.049Z,18.62
2024-04-06T11:04:14.017Z,18.60
2024-04-06T11:06:41.792Z,18.50
2024-04-06T11:09:11.680Z,18.46
2024-04-06T11:11:39.802Z,18.39
2024-04-06T11:14:26.456Z,18.31
2024-04-06T11:16:54.974Z,18.28
2024-04-06T11:19:25.454Z,18.29
2024-04-06T11:22:11.069Z,18.43
2024-04-06T11:24:57.287Z,18.50
2024-04-06T11:27:51.871Z,18.56
2024-04-06T11:30:20.324Z,18.60
2024-04-06T11:33:05.911Z,18.65
2024-04-06T11:35:33.384Z,18.65
2024-04-06T11:38:18.781Z,18.70
2024-04-06T11:40:49.476Z,18.63
2024-04-06T11:43:34.769Z,18.70
2024-04-06T11:46:02.322Z,18.58
2024-04-06T11:48:31.861Z,18.60
2024-04-06T11:51:17.707Z,18.72
2024-04-06T11:53:48.647Z,18.89
2024-04-06T11:56:18.767Z,18.80
2024-04-06T11:58:46.226Z,18.50
2024-04-06T12:01:13.724Z,18.34
2024-04-06T12:03:41.261Z,18.09
2024-04-06T12:06:12.583Z,17.97
2024-04-06T12:08:58.472Z,17.78
2024-04-06T12:11:25.954Z,17.66
2024-04-06T12:13:54.514Z,17.60
2024-04-06T12:16:23.042Z,17.45
2024-04-06T12:18:51.390Z,17.22
2024-04-06T12:21:19.137Z,17.46
2024-04-06T12:24:04.924Z,17.52
2024-04-06T12:26:32.484Z,17.53
2024-04-06T12:29:00.164Z,17.55
2024-04-06T12:31:46.040Z,17.49
2024-04-06T12:34:31.417Z,17.31
2024-04-06T12:37:01.737Z,17.44
2024-04-06T12:39:29.193Z,17.05
2024-04-06T12:42:14.683Z,17.21
2024-04-06T12:44:42.238Z,16.81
2024-04-06T12:47:09.807Z,16.58
2024-04-06T12:49:37.858Z,16.51
2024-04-06T12:52:05.965Z,16.67
2024-04-06T12:54:33.411Z,16.74
2024-04-06T12:57:19.802Z,16.80
2024-04-06T12:59:47.255Z,16.87
2024-04-06T13:02:14.731Z,16.87
2024-04-06T13:04:42.184Z,17.25
2024-04-06T13:07:09.771Z,17.26
2024-04-06T13:09:37.329Z,17.08
2024-04-06T13:12:05.255Z,16.91
2024-04-06T13:14:32.740Z,16.76
2024-04-06T13:17:00.222Z,16.48
2024-04-06T13:19:27.891Z,16.78
2024-04-06T13:21:55.695Z,16.96
2024-04-06T13:24:24.076Z,16.97
2024-04-06T13:26:51.740Z,17.14
2024-04-06T13:29:19.412Z,16.96
2024-04-06T13:31:47.003Z,16.71
2024-04-06T13:34:14.427Z,16.64
2024-04-06T13:36:41.980Z,16.56
2024-04-06T13:39:13.331Z,16.39
2024-04-06T13:41:40.783Z,16.78
2024-04-06T13:44:08.337Z,17.12
2024-04-06T13:46:35.803Z,16.94
2024-04-06T13:49:03.982Z,16.83
2024-04-06T13:51:31.579Z,17.06
2024-04-06T13:53:58.983Z,17.06
2024-04-06T13:56:27.523Z,16.88
2024-04-06T13:58:56.376Z,16.72
2024-04-06T14:01:24.115Z,16.63
2024-04-06T14:03:51.784Z,17.07
2024-04-06T14:06:19.239Z,17.64
2024-04-06T14:08:47.261Z,17.44
2024-04-06T14:11:14.688Z,16.90
2024-04-06T14:13:42.943Z,17.27
2024-04-06T14:16:10.430Z,17.17
2024-04-06T14:18:37.981Z,16.89
2024-04-06T14:21:05.466Z,16.79
2024-04-06T14:23:32.879Z,17.06
2024-04-06T14:26:01.482Z,16.96
2024-04-06T14:28:29.068Z,16.60
2024-04-06T14:30:56.481Z,17.00
2024-04-06T14:33:24.038Z,16.82
2024-04-06T14:35:51.902Z,16.61
2024-04-06T14:38:19.253Z,17.26
2024-04-06T14:40:47.156Z,17.41
2024-04-06T14:43:16.921Z,17.28
2024-04-06T14:45:46.141Z,17.04
2024-04-06T14:48:13.696Z,16.93
2024-04-06T14:50:41.148Z,16.90
2024-04-06T14:53:08.737Z,16.78
2024-04-06T14:55:36.167Z,16.45
2024-04-06T14:58:04.277Z,16.59
2024-04-06T15:00:31.694Z,16.71
2024-04-06T15:02:59.149Z,16.78
2024-04-06T15:05:26.627Z,16.95
2024-04-06T15:07:54.582Z,16.87
2024-04-06T15:10:22.160Z,16.81
2024-04-06T15:12:49.810Z,16.82
2024-04-06T15:15:17.434Z,16.75
2024-04-06T15:17:44.954Z,16.77
2024-04-06T15:20:12.593Z,17.15
2024-04-06T15:22:41.370Z,16.93
2024-04-06T15:25:09.381Z,17.13
2024-04-06T15:27:37.064Z,16.91
2024-04-06T15:30:05.799Z,16.98
2024-04-06T15:32:34.498Z,16.62
2024-04-06T15:35:01.970Z,16.74
2024-04-06T15:37:29.439Z,16.79
2024-04-06T15:39:56.952Z,16.85
2024-04-06T15:42:24.828Z,16.66
2024-04-06T15:44:52.276Z,16.70
2024-04-06T15:47:19.868Z,16.69
2024-04-06T15:49:47.394Z,17.02
2024-04-06T15:52:14.853Z,17.25
2024-04-06T15:55:00.329Z,17.15
2024-04-06T15:57:27.892Z,17.01
2024-04-06T15:59:55.361Z,16.90
2024-04-06T16:02:24.710Z,16.92
2024-04-06T16:04:53.333Z,16.61
2024-04-06T16:07:20.789Z,16.56
2024-04-06T16:09:48.465Z,16.53
2024-04-06T16:12:16.313Z,16.24
2024-04-06T16:14:43.790Z,16.03
2024-04-06T16:17:11.244Z,16.05
2024-04-06T16:19:38.792Z,16.05
2024-04-06T16:22:06.401Z,15.94
2024-04-06T16:24:34.419Z,16.56
2024-04-06T16:27:01.883Z,16.84
2024-04-06T16:29:29.363Z,17.05
2024-04-06T16:31:56.899Z,17.00
2024-04-06T16:34:24.580Z,16.79
2024-04-06T16:36:52.427Z,16.61
2024-04-06T16:39:19.891Z,16.41
2024-04-06T16:41:47.396Z,16.20
2024-04-06T16:44:16.943Z,16.08
2024-04-06T16:46:44.403Z,15.88
2024-04-06T16:49:11.864Z,15.73
2024-04-06T16:51:39.319Z,15.62
2024-04-06T16:54:06.905Z,16.23
2024-04-06T16:56:34.337Z,16.90
2024-04-06T16:59:01.904Z,17.02
2024-04-06T17:01:29.366Z,16.86
2024-04-06T17:03:57.120Z,16.63
2024-04-06T17:06:25.013Z,16.43
2024-04-06T17:08:52.443Z,16.25
2024-04-06T17:11:19.995Z,16.03
2024-04-06T17:13:47.369Z,15.82
2024-04-06T17:16:14.952Z,15.62
2024-04-06T17:18:42.586Z,15.34
2024-04-06T17:21:10.744Z,15.80
2024-04-06T17:23:38.357Z,16.37
2024-04-06T17:26:05.973Z,16.40
2024-04-06T17:28:33.448Z,16.18
2024-04-06T17:31:00.926Z,15.90
2024-04-06T17:33:28.451Z,15.62
2024-04-06T17:35:56.009Z,15.45
2024-04-06T17:38:25.109Z,15.27
2024-04-06T17:40:52.670Z,15.09
2024-04-06T17:43:23.229Z,14.71
2024-04-06T17:45:50.643Z,15.27
2024-04-06T17:48:18.172Z,15.81
2024-04-06T17:50:45.675Z,15.80
2024-04-06T17:53:13.121Z,15.63
2024-04-06T17:55:41.333Z,15.39
2024-04-06T17:58:14.283Z,15.15
2024-04-06T18:00:45.926Z,14.93
2024-04-06T18:03:16.937Z,14.72
2024-04-06T18:05:44.349Z,14.42
2024-04-06T18:08:12.709Z,14.90
2024-04-06T18:10:41.032Z,15.41
2024-04-06T18:13:08.851Z,15.42
2024-04-06T18:15:36.823Z,15.17
2024-04-06T18:18:05.027Z,14.81
2024-04-06T18:20:32.555Z,14.47
2024-04-06T18:23:00.014Z,14.27
2024-04-06T18:25:27.498Z,14.05
2024-04-06T18:27:55.025Z,14.48
2024-04-06T18:30:22.512Z,14.99
2024-04-06T18:32:50.038Z,14.98
2024-04-06T18:35:17.517Z,14.79
2024-04-06T18:37:45.056Z,14.55
2024-04-06T18:40:12.633Z,14.31
2024-04-06T18:42:40.405Z,14.09
2024-04-06T18:45:08.047Z,13.80
2024-04-06T18:47:36.693Z,14.26
2024-04-06T18:50:07.802Z,14.85
2024-04-06T18:52:35.413Z,14.87
2024-04-06T18:55:03.867Z,14.67
2024-04-06T18:57:31.414Z,14.42
2024-04-06T18:59:58.932Z,14.20
2024-04-06T19:02:27.031Z,13.99
2024-04-06T19:04:56.307Z,13.71
2024-04-06T19:07:24.171Z,14.13
2024-04-06T19:09:51.539Z,14.66
2024-04-06T19:12:19.397Z,14.69
2024-04-06T19:14:46.874Z,14.51
2024-04-06T19:17:14.302Z,14.31
2024-04-06T19:19:41.863Z,14.10
2024-04-06T19:22:09.430Z,13.86
2024-04-06T19:24:36.876Z,13.61
2024-04-06T19:27:05.006Z,14.08
2024-04-06T19:29:32.517Z,14.62
2024-04-06T19:31:59.963Z,14.66
2024-04-06T19:34:27.966Z,14.45
2024-04-06T19:36:55.396Z,14.23
2024-04-06T19:39:22.888Z,14.01
2024-04-06T19:41:50.306Z,13.75
2024-04-06T19:44:17.759Z,13.47
2024-04-06T19:46:47.298Z,13.91
2024-04-06T19:49:15.663Z,14.45
2024-04-06T19:51:44.332Z,14.52
2024-04-06T19:54:12.114Z,14.38
2024-04-06T19:56:39.868Z,14.18
2024-04-06T19:59:07.337Z,14.00
2024-04-06T20:01:34.841Z,13.87
2024-04-06T20:04:02.544Z,13.69
2024-04-06T20:06:31.122Z,14.22
2024-04-06T20:09:11.184Z,14.82
2024-04-06T20:11:38.670Z,14.84
2024-04-06T20:14:06.219Z,14.64
2024-04-06T20:16:33.788Z,14.33
2024-04-06T20:19:01.968Z,14.13
2024-04-06T20:21:29.494Z,13.94
2024-04-06T20:24:15.891Z,13.74
2024-04-06T20:26:43.341Z,14.29
2024-04-06T20:29:10.796Z,14.78
2024-04-06T20:31:38.498Z,14.83
2024-04-06T20:34:06.339Z,14.66
2024-04-06T20:36:36.764Z,14.46
2024-04-06T20:39:09.568Z,14.24
2024-04-06T20:41:37.307Z,13.98
2024-04-06T20:44:05.374Z,13.75
2024-04-06T20:46:32.973Z,14.12
2024-04-06T20:49:00.602Z,14.53
2024-04-06T20:51:28.170Z,14.40
2024-04-06T20:53:55.614Z,14.06
2024-04-06T20:56:23.206Z,13.42
2024-04-06T20:58:50.627Z,13.35
2024-04-06T21:01:18.242Z,13.40
2024-04-06T21:03:45.752Z,13.39
2024-04-06T21:06:13.208Z,13.89
2024-04-06T21:08:44.982Z,14.21
2024-04-06T21:11:12.550Z,14.25
2024-04-06T21:13:40.530Z,14.23
2024-04-06T21:16:07.972Z,14.31
2024-04-06T21:18:36.009Z,14.27
2024-04-06T21:21:03.575Z,14.29
2024-04-06T21:23:31.044Z,14.26
2024-04-06T21:26:01.723Z,14.22
2024-04-06T21:28:29.869Z,14.85
2024-04-06T21:30:58.229Z,15.37
2024-04-06T21:33:25.876Z,15.08
2024-04-06T21:35:53.255Z,15.11
2024-04-06T21:38:21.206Z,14.92
2024-04-06T21:40:48.660Z,14.71
2024-04-06T21:43:16.133Z,14.51
2024-04-06T21:45:43.583Z,14.28
2024-04-06T21:48:11.056Z,13.99
2024-04-06T21:50:38.491Z,13.80
2024-04-06T21:53:05.984Z,14.14
2024-04-06T21:55:33.723Z,14.63
2024-04-06T21:58:01.174Z,14.63
2024-04-06T22:00:30.291Z,14.59
2024-04-06T22:02:57.723Z,14.47
2024-04-06T22:05:26.708Z,14.25
2024-04-06T22:07:54.074Z,14.06
2024-04-06T22:10:21.523Z,13.94
2024-04-06T22:12:49.009Z,13.80
2024-04-06T22:15:16.433Z,13.65
2024-04-06T22:17:43.890Z,14.15
2024-04-06T22:20:11.929Z,14.69
2024-04-06T22:22:39.445Z,14.84
2024-04-06T22:25:07.523Z,14.69
2024-04-06T22:27:34.950Z,14.37
2024-04-06T22:30:06.813Z,13.98
2024-04-06T22:32:34.306Z,13.62
2024-04-06T22:35:01.724Z,13.41
2024-04-06T22:37:32.152Z,13.17
2024-04-06T22:39:59.519Z,12.91
2024-04-06T22:42:27.777Z,13.46
2024-04-06T22:44:55.267Z,14.03
2024-04-06T22:47:22.694Z,14.12
2024-04-06T22:49:52.264Z,13.94
2024-04-06T22:52:19.761Z,13.68
2024-04-06T22:54:47.221Z,13.42
2024-04-06T22:57:14.718Z,13.16
2024-04-06T22:59:42.646Z,12.93
2024-04-06T23:02:10.002Z,12.65
2024-04-06T23:04:37.695Z,13.14
2024-04-06T23:07:05.116Z,13.74
2024-04-06T23:09:32.613Z,13.85
2024-04-06T23:12:00.136Z,13.74
2024-04-06T23:14:27.957Z,13.53
2024-04-06T23:16:57.117Z,13.25
2024-04-06T23:19:24.557Z,13.02
2024-04-06T23:21:52.053Z,12.89
2024-04-06T23:24:20.601Z,12.71
2024-04-06T23:26:47.945Z,13.25
2024-04-06T23:29:16.254Z,13.73
2024-04-06T23:31:43.719Z,13.88
2024-04-06T23:34:11.647Z,13.72
2024-04-06T23:36:39.477Z,13.52
2024-04-06T23:39:06.873Z,13.31
2024-04-06T23:41:34.362Z,13.17
2024-04-06T23:44:01.789Z,13.00
2024-04-06T23:46:29.242Z,12.75
2024-04-06T23:48:56.608Z,13.19
2024-04-06T23:51:24.050Z,13.79
2024-04-06T23:53:51.428Z,13.80
2024-04-06T23:56:18.869Z,13.56
2024-04-06T23:58:46.379Z,13.36
